Time;durP1;ratioP1;P1;durP2;ratioP2;P2;SDS_P1;SDS_P2;PMS_P1;PMS_P2;Temp;Humidity;BMP_temperature;BMP_pressure;BME280_temperature;BME280_humidity;BME280_pressure;Samples;Min_cycle;Max_cycle;Signal;HPM_P1;HPM_P2
2023/02/01 00:00:11;;;;;;;15.40;4.20;;;;;;;;;;5099889;28;20444;-74
2023/02/01 00:02:40;;;;;;;13.27;2.83;;;;;;;;;;5098616;28;20814;-74
2023/02/01 00:05:09;;;;;;;10.30;2.40;;;;;;;;;;5108384;28;20450;-74
2023/02/01 00:07:41;;;;;;;9.60;3.30;;;;;;;;;;5119023;28;20781;-74
2023/02/01 00:10:12;;;;;;;12.27;3.10;;;;;;;;;;5118459;28;20451;-74
2023/02/01 00:12:44;;;;;;;12.70;1.90;;;;;;;;;;5118462;28;20443;-74
2023/02/01 00:15:12;;;;;;;18.47;2.60;;;;;;;;;;5119031;28;20735;-75
2023/02/01 00:17:40;;;;;;;12.07;2.47;;;;;;;;;;5118453;28;20454;-75
2023/02/01 00:20:12;;;;;;;4.63;2.17;;;;;;;;;;5117918;28;20872;-75
2023/02/01 00:22:40;;;;;;;17.00;3.53;;;;;;;;;;5119096;28;20447;-74
2023/02/01 00:25:08;;;;;;;16.53;2.73;;;;;;;;;;5119129;28;20552;-74
2023/02/01 00:27:37;;;;;;;12.43;4.77;;;;;;;;;;5119296;28;20510;-74
2023/02/01 00:30:11;;;;;;;15.30;3.40;;;;;;;;;;5118301;28;20458;-74
2023/02/01 00:32:41;;;;;;;17.07;3.00;;;;;;;;;;5104448;28;20478;-74
2023/02/01 00:35:09;;;;;;;20.97;3.43;;;;;;;;;;5112389;28;20520;-74
2023/02/01 00:37:37;;;;;;;14.80;3.17;;;;;;;;;;5117819;28;20457;-74
2023/02/01 00:40:05;;;;;;;20.17;5.13;;;;;;;;;;5117870;28;20861;-74
2023/02/01 00:42:35;;;;;;;11.37;2.77;;;;;;;;;;5117341;28;20442;-74
2023/02/01 00:45:04;;;;;;;14.80;2.50;;;;;;;;;;5118581;28;20465;-75
2023/02/01 00:47:32;;;;;;;27.17;3.10;;;;;;;;;;5117666;28;20490;-74
2023/02/01 00:50:00;;;;;;;13.57;3.70;;;;;;;;;;5118879;28;20516;-74
2023/02/01 00:52:27;;;;;;;14.47;2.90;;;;;;;;;;5100916;28;20454;-75
2023/02/01 00:54:55;;;;;;;10.40;2.57;;;;;;;;;;5097662;28;20459;-75
2023/02/01 00:57:22;;;;;;;9.20;3.30;;;;;;;;;;5103531;28;20912;-74
2023/02/01 00:59:50;;;;;;;17.73;3.80;;;;;;;;;;5117897;28;20527;-74
2023/02/01 01:02:19;;;;;;;12.13;2.37;;;;;;;;;;5118260;28;20554;-74
2023/02/01 01:04:47;;;;;;;18.23;3.50;;;;;;;;;;5117982;28;20467;-74
2023/02/01 01:07:14;;;;;;;10.23;2.13;;;;;;;;;;5117723;28;20482;-74
2023/02/01 01:09:42;;;;;;;16.67;3.10;;;;;;;;;;5117877;28;20455;-74
2023/02/01 01:12:10;;;;;;;21.97;2.57;;;;;;;;;;5117289;28;20515;-74
2023/02/01 01:14:38;;;;;;;11.37;2.40;;;;;;;;;;5117282;28;20459;-74
2023/02/01 01:17:06;;;;;;;13.07;2.70;;;;;;;;;;5118263;28;20523;-75
2023/02/01 01:19:35;;;;;;;30.50;4.00;;;;;;;;;;5117943;28;20466;-74
2023/02/01 01:22:02;;;;;;;16.83;3.10;;;;;;;;;;5117974;28;20447;-74
2023/02/01 01:24:30;;;;;;;24.70;3.50;;;;;;;;;;5118296;28;20445;-74
2023/02/01 01:26:58;;;;;;;19.57;5.07;;;;;;;;;;5117911;28;20479;-74
2023/02/01 01:29:26;;;;;;;7.97;2.60;;;;;;;;;;5117817;28;20523;-74
2023/02/01 01:31:53;;;;;;;15.63;3.53;;;;;;;;;;5118098;28;20903;-74
2023/02/01 01:34:21;;;;;;;14.93;2.67;;;;;;;;;;5117860;28;20456;-74
2023/02/01 01:36:50;;;;;;;14.30;2.70;;;;;;;;;;5117929;28;20451;-74
2023/02/01 01:39:18;;;;;;;19.97;4.80;;;;;;;;;;5117776;28;20508;-74
2023/02/01 01:41:47;;;;;;;17.53;2.60;;;;;;;;;;5117635;28;20454;-74
2023/02/01 01:44:33;;;;;;;18.10;3.40;;;;;;;;;;5118055;28;20537;-73
2023/02/01 01:47:08;;;;;;;18.20;3.80;;;;;;;;;;5096938;28;20487;-74
2023/02/01 01:49:38;;;;;;;17.07;4.13;;;;;;;;;;5097402;28;20905;-74
2023/02/01 01:52:07;;;;;;;20.13;3.80;;;;;;;;;;5104722;28;20498;-74
2023/02/01 01:54:36;;;;;;;14.40;3.00;;;;;;;;;;5116681;28;20447;-74
2023/02/01 01:57:06;;;;;;;16.40;3.40;;;;;;;;;;5117587;28;20519;-74
2023/02/01 01:59:34;;;;;;;23.20;5.60;;;;;;;;;;5117506;28;20454;-74
2023/02/01 02:02:04;;;;;;;18.73;3.53;;;;;;;;;;5118027;28;20512;-74
2023/02/01 02:04:35;;;;;;;17.00;3.60;;;;;;;;;;5117422;28;20443;-74
2023/02/01 02:07:07;;;;;;;26.70;4.43;;;;;;;;;;5116977;28;20486;-74
2023/02/01 02:09:37;;;;;;;21.10;4.30;;;;;;;;;;5117591;28;20469;-74
2023/02/01 02:12:04;;;;;;;15.43;5.20;;;;;;;;;;5119307;28;20456;-74
2023/02/01 02:14:32;;;;;;;12.97;1.80;;;;;;;;;;5117262;28;20451;-73
2023/02/01 02:17:04;;;;;;;16.73;2.90;;;;;;;;;;5116551;28;20501;-74
2023/02/01 02:19:51;;;;;;;15.00;3.50;;;;;;;;;;5116860;28;20529;-74
2023/02/01 02:22:29;;;;;;;12.27;3.20;;;;;;;;;;5117783;28;20454;-73
2023/02/01 02:25:04;;;;;;;7.63;2.07;;;;;;;;;;5117749;28;20454;-74
2023/02/01 02:27:38;;;;;;;15.30;2.87;;;;;;;;;;5117551;28;20758;-73
2023/02/01 02:30:30;;;;;;;22.10;4.07;;;;;;;;;;5117355;28;20486;-74
2023/02/01 02:33:17;;;;;;;17.10;4.10;;;;;;;;;;5117255;28;20455;-74
2023/02/01 02:35:49;;;;;;;11.93;2.60;;;;;;;;;;5119413;28;20453;-74
2023/02/01 02:38:20;;;;;;;17.73;2.97;;;;;;;;;;5097225;28;20452;-74
2023/02/01 02:40:51;;;;;;;17.07;3.80;;;;;;;;;;5097051;28;20915;-74
2023/02/01 02:49:03;;;;;;;20.87;3.73;;;;;;;;;;5120647;28;20442;-74
2023/02/01 03:05:34;;;;;;;12.67;3.70;;;;;;;;;;5120312;28;20410;-73
2023/02/01 03:08:11;;;;;;;14.10;3.43;;;;;;;;;;5120755;28;20478;-73
2023/02/01 03:10:57;;;;;;;23.60;3.97;;;;;;;;;;5119934;28;20457;-73
2023/02/01 03:13:28;;;;;;;18.87;3.73;;;;;;;;;;5120434;28;20793;-73
2023/02/01 03:15:59;;;;;;;25.30;4.23;;;;;;;;;;5120241;28;20447;-74
2023/02/01 03:18:28;;;;;;;21.17;4.03;;;;;;;;;;5120957;28;20476;-74
2023/02/01 03:20:57;;;;;;;15.67;3.63;;;;;;;;;;5120113;28;20465;-74
2023/02/01 03:23:29;;;;;;;7.93;3.10;;;;;;;;;;5120419;28;20447;-74
2023/02/01 03:25:58;;;;;;;12.43;3.67;;;;;;;;;;5120463;28;20451;-74
2023/02/01 03:28:27;;;;;;;14.53;3.50;;;;;;;;;;5119947;28;21121;-74
2023/02/01 03:30:55;;;;;;;16.90;3.20;;;;;;;;;;5120189;28;20450;-74
2023/02/01 03:33:25;;;;;;;22.63;4.60;;;;;;;;;;5119416;28;20447;-74
2023/02/01 03:36:10;;;;;;;14.70;3.20;;;;;;;;;;5119252;28;20524;-74
2023/02/01 03:38:42;;;;;;;15.90;3.67;;;;;;;;;;5120620;28;20781;-74
2023/02/01 03:41:13;;;;;;;6.43;2.07;;;;;;;;;;5119599;28;20443;-73
2023/02/01 03:43:45;;;;;;;13.17;3.93;;;;;;;;;;5119535;28;20457;-74
2023/02/01 03:46:16;;;;;;;14.47;2.67;;;;;;;;;;5119502;28;20443;-74
2023/02/01 03:48:44;;;;;;;9.30;2.97;;;;;;;;;;5119319;28;20535;-74
2023/02/01 03:51:12;;;;;;;21.73;3.53;;;;;;;;;;5120995;28;20478;-74
2023/02/01 03:53:49;;;;;;;14.43;3.03;;;;;;;;;;5119879;28;20453;-74
2023/02/01 03:56:17;;;;;;;15.63;2.60;;;;;;;;;;5119502;28;20455;-74
2023/02/01 03:58:58;;;;;;;12.30;2.93;;;;;;;;;;5119399;28;20439;-73
2023/02/01 04:01:26;;;;;;;6.00;1.90;;;;;;;;;;5117096;28;20497;-73
2023/02/01 04:03:54;;;;;;;4.13;1.20;;;;;;;;;;5099396;28;20455;-73
2023/02/01 04:06:22;;;;;;;4.47;1.00;;;;;;;;;;5098572;28;20536;-74
2023/02/01 04:08:53;;;;;;;3.83;0.80;;;;;;;;;;5099110;28;20476;-73
2023/02/01 04:11:24;;;;;;;8.27;2.27;;;;;;;;;;5099307;28;20452;-73
2023/02/01 04:13:53;;;;;;;2.60;1.30;;;;;;;;;;5099978;28;20524;-73
2023/02/01 04:16:23;;;;;;;6.00;1.63;;;;;;;;;;5099066;28;20456;-73
2023/02/01 04:18:51;;;;;;;4.83;1.00;;;;;;;;;;5103769;28;20450;-73
2023/02/01 04:21:25;;;;;;;2.80;0.87;;;;;;;;;;5118727;28;20469;-73
2023/02/01 04:24:05;;;;;;;1.77;0.90;;;;;;;;;;5119042;28;20526;-74
2023/02/01 04:26:34;;;;;;;6.13;1.00;;;;;;;;;;5119583;28;20460;-73
2023/02/01 04:29:07;;;;;;;3.90;1.57;;;;;;;;;;5102257;28;20919;-73
2023/02/01 04:31:36;;;;;;;5.60;0.80;;;;;;;;;;5098820;28;20498;-73
2023/02/01 04:34:05;;;;;;;1.80;0.77;;;;;;;;;;5097626;28;20542;-73
2023/02/01 04:36:35;;;;;;;3.63;0.60;;;;;;;;;;5098503;28;20542;-73
2023/02/01 04:39:07;;;;;;;3.77;1.33;;;;;;;;;;5107728;28;20471;-72
2023/02/01 04:41:35;;;;;;;3.40;1.13;;;;;;;;;;5098976;28;20452;-72
2023/02/01 04:44:03;;;;;;;4.60;0.80;;;;;;;;;;5116921;28;20435;-73
2023/02/01 04:46:31;;;;;;;5.40;1.37;;;;;;;;;;5117906;28;20466;-73
2023/02/01 04:48:58;;;;;;;2.33;0.90;;;;;;;;;;5118836;28;20486;-72
2023/02/01 04:51:26;;;;;;;5.00;1.20;;;;;;;;;;5117448;28;20454;-72
2023/02/01 04:53:55;;;;;;;4.30;1.03;;;;;;;;;;5118411;28;20447;-73
2023/02/01 04:56:24;;;;;;;9.90;1.97;;;;;;;;;;5117682;28;20755;-73
2023/02/01 04:58:52;;;;;;;3.30;1.10;;;;;;;;;;5118628;28;20458;-74
2023/02/01 05:01:24;;;;;;;5.50;1.30;;;;;;;;;;5118049;28;20455;-74
2023/02/01 05:03:51;;;;;;;6.10;1.43;;;;;;;;;;5118318;28;20474;-73
2023/02/01 05:06:19;;;;;;;3.33;1.00;;;;;;;;;;5115284;28;20465;-73
2023/02/01 05:08:46;;;;;;;4.77;0.90;;;;;;;;;;5113735;28;21090;-73
2023/02/01 05:14:00;;;;;;;8.73;1.83;;;;;;;;;;5116998;28;20423;-73
2023/02/01 05:16:28;;;;;;;7.37;2.00;;;;;;;;;;5118300;28;20454;-73
2023/02/01 05:18:55;;;;;;;8.50;1.13;;;;;;;;;;5107410;28;20439;-74
2023/02/01 05:21:32;;;;;;;3.20;1.10;;;;;;;;;;5097520;28;20538;-73
2023/02/01 05:24:12;;;;;;;4.13;1.13;;;;;;;;;;5097754;28;20500;-74
2023/02/01 05:26:43;;;;;;;5.23;1.90;;;;;;;;;;5097810;28;20447;-72
2023/02/01 05:29:18;;;;;;;6.60;1.53;;;;;;;;;;5098579;28;20926;-72
2023/02/01 05:31:49;;;;;;;4.33;1.20;;;;;;;;;;5097666;28;20478;-72
2023/02/01 05:34:22;;;;;;;3.87;0.93;;;;;;;;;;5097579;28;20732;-73
2023/02/01 05:36:51;;;;;;;3.13;1.00;;;;;;;;;;5099313;28;20526;-74
2023/02/01 05:39:19;;;;;;;2.10;1.00;;;;;;;;;;5098061;28;20813;-74
2023/02/01 05:41:47;;;;;;;4.60;1.80;;;;;;;;;;5096600;28;20490;-74
2023/02/01 05:46:59;;;;;;;1.80;0.80;;;;;;;;;;5114528;28;20439;-74
2023/02/01 05:49:28;;;;;;;2.60;1.00;;;;;;;;;;5116775;28;20505;-74
2023/02/01 05:51:56;;;;;;;11.17;1.47;;;;;;;;;;5117496;28;20479;-74
2023/02/01 05:54:23;;;;;;;1.93;0.60;;;;;;;;;;5117496;28;20451;-73
2023/02/01 05:56:52;;;;;;;1.93;0.77;;;;;;;;;;5116613;28;20501;-74
2023/02/01 05:59:26;;;;;;;3.07;1.03;;;;;;;;;;5118652;28;20527;-74
2023/02/01 06:01:54;;;;;;;2.93;1.03;;;;;;;;;;5115019;28;20455;-74
2023/02/01 06:04:36;;;;;;;1.93;0.87;;;;;;;;;;5117088;28;20446;-73
2023/02/01 06:07:04;;;;;;;2.47;1.17;;;;;;;;;;5114709;28;20474;-73
2023/02/01 06:09:32;;;;;;;3.27;0.93;;;;;;;;;;5110664;28;20898;-74
2023/02/01 06:12:05;;;;;;;2.40;0.93;;;;;;;;;;5114984;28;20461;-73
2023/02/01 06:17:30;;;;;;;4.13;1.70;;;;;;;;;;5118536;28;20752;-74
2023/02/01 06:20:03;;;;;;;1.70;0.60;;;;;;;;;;5116019;28;20450;-74
2023/02/01 06:22:32;;;;;;;1.40;0.60;;;;;;;;;;5120354;28;20447;-74
2023/02/01 06:25:01;;;;;;;3.93;0.60;;;;;;;;;;5119058;28;20549;-72
2023/02/01 06:27:32;;;;;;;1.87;0.90;;;;;;;;;;5119889;28;20490;-74
2023/02/01 06:30:06;;;;;;;2.70;0.70;;;;;;;;;;5119182;28;20785;-75
2023/02/01 06:32:39;;;;;;;1.83;0.70;;;;;;;;;;5113741;28;20897;-75
2023/02/01 06:35:11;;;;;;;1.90;0.70;;;;;;;;;;5120240;28;20451;-73
2023/02/01 06:37:41;;;;;;;2.80;0.87;;;;;;;;;;5101586;28;20463;-73
2023/02/01 06:40:17;;;;;;;1.40;0.60;;;;;;;;;;5119321;28;20525;-73
2023/02/01 06:42:49;;;;;;;2.70;0.70;;;;;;;;;;5118959;28;20557;-74
2023/02/01 06:45:18;;;;;;;2.50;1.20;;;;;;;;;;5119371;28;20809;-74
2023/02/01 06:47:48;;;;;;;3.77;1.40;;;;;;;;;;5119586;28;20455;-74
2023/02/01 06:50:22;;;;;;;2.70;0.87;;;;;;;;;;5119078;28;20451;-74
2023/02/01 06:52:54;;;;;;;1.63;0.87;;;;;;;;;;5111351;28;20470;-74
2023/02/01 06:55:26;;;;;;;1.50;0.90;;;;;;;;;;5117639;28;20446;-73
2023/02/01 06:58:01;;;;;;;3.80;1.07;;;;;;;;;;5119480;28;20463;-73
2023/02/01 07:00:31;;;;;;;2.37;1.10;;;;;;;;;;5118536;28;20449;-73
2023/02/01 07:03:15;;;;;;;2.03;0.90;;;;;;;;;;5118254;28;20431;-72
2023/02/01 07:05:43;;;;;;;2.30;1.13;;;;;;;;;;5098404;28;21003;-72
2023/02/01 07:08:15;;;;;;;3.67;0.77;;;;;;;;;;5106285;28;20471;-73
2023/02/01 07:10:45;;;;;;;2.73;1.20;;;;;;;;;;5113703;28;20579;-74
2023/02/01 07:13:13;;;;;;;2.33;0.87;;;;;;;;;;5119435;28;20486;-74
2023/02/01 07:15:42;;;;;;;4.30;1.27;;;;;;;;;;5119000;28;20508;-74
2023/02/01 07:18:10;;;;;;;1.90;0.80;;;;;;;;;;5119552;28;20869;-74
2023/02/01 07:20:38;;;;;;;2.50;0.87;;;;;;;;;;5117775;28;20462;-74
2023/02/01 07:23:08;;;;;;;2.37;0.73;;;;;;;;;;5119433;28;20443;-74
2023/02/01 07:25:42;;;;;;;3.63;0.80;;;;;;;;;;5117355;28;20488;-74
2023/02/01 07:28:11;;;;;;;8.40;1.17;;;;;;;;;;5117252;28;21192;-73
2023/02/01 07:30:39;;;;;;;4.33;1.30;;;;;;;;;;5119285;28;20500;-73
2023/02/01 07:33:08;;;;;;;6.40;1.10;;;;;;;;;;5117657;28;20911;-73
2023/02/01 07:35:36;;;;;;;6.53;1.30;;;;;;;;;;5117411;28;20657;-73
2023/02/01 07:38:06;;;;;;;7.03;1.13;;;;;;;;;;5102819;28;20436;-73
2023/02/01 07:40:35;;;;;;;5.43;1.40;;;;;;;;;;5097908;28;20448;-73
2023/02/01 07:43:02;;;;;;;4.13;1.00;;;;;;;;;;5097150;28;20513;-73
2023/02/01 07:45:30;;;;;;;7.93;1.87;;;;;;;;;;5104907;28;20523;-73
2023/02/01 07:47:57;;;;;;;4.87;1.47;;;;;;;;;;5109623;28;20455;-73
2023/02/01 07:50:27;;;;;;;7.10;1.50;;;;;;;;;;5097315;28;20444;-73
2023/02/01 07:52:54;;;;;;;2.80;1.23;;;;;;;;;;5104110;28;20450;-74
2023/02/01 07:55:24;;;;;;;4.87;1.70;;;;;;;;;;5119024;28;20458;-73
2023/02/01 07:57:52;;;;;;;10.83;1.80;;;;;;;;;;5116835;28;20534;-72
2023/02/01 08:03:05;;;;;;;12.40;2.50;;;;;;;;;;5106156;28;20493;-73
2023/02/01 08:05:36;;;;;;;9.67;2.40;;;;;;;;;;5098408;28;20544;-73
2023/02/01 08:08:04;;;;;;;8.47;2.20;;;;;;;;;;5098943;28;20452;-72
2023/02/01 08:10:35;;;;;;;5.47;1.60;;;;;;;;;;5098425;28;20486;-73
2023/02/01 08:13:03;;;;;;;11.80;2.87;;;;;;;;;;5098559;28;20524;-73
2023/02/01 08:15:34;;;;;;;10.70;2.10;;;;;;;;;;5114003;28;20454;-73
2023/02/01 08:18:16;;;;;;;7.10;1.57;;;;;;;;;;5109420;28;20549;-73
2023/02/01 08:20:54;;;;;;;10.87;1.80;;;;;;;;;;5118191;28;20862;-73
2023/02/01 08:23:22;;;;;;;14.10;3.40;;;;;;;;;;5116686;28;20442;-71
2023/02/01 08:25:50;;;;;;;11.57;2.17;;;;;;;;;;5117835;28;20489;-73
2023/02/01 08:28:17;;;;;;;12.67;2.23;;;;;;;;;;5117053;28;20462;-73
2023/02/01 08:30:46;;;;;;;8.03;2.00;;;;;;;;;;5117512;28;20511;-72
2023/02/01 08:33:15;;;;;;;10.33;3.53;;;;;;;;;;5103255;28;20460;-72
2023/02/01 08:35:43;;;;;;;9.30;2.30;;;;;;;;;;5105923;28;20720;-72
2023/02/01 08:38:12;;;;;;;15.90;2.87;;;;;;;;;;5117965;28;20464;-72
2023/02/01 08:40:46;;;;;;;5.50;1.70;;;;;;;;;;5097891;28;20455;-72
2023/02/01 08:43:14;;;;;;;9.33;2.50;;;;;;;;;;5108354;28;20462;-73
2023/02/01 08:45:42;;;;;;;8.73;3.27;;;;;;;;;;5117402;28;20783;-73
2023/02/01 08:48:13;;;;;;;8.33;1.90;;;;;;;;;;5116423;28;20904;-73
2023/02/01 08:50:41;;;;;;;9.33;1.80;;;;;;;;;;5115245;28;20490;-73
2023/02/01 08:53:13;;;;;;;14.27;2.03;;;;;;;;;;5117126;28;20451;-74
2023/02/01 08:55:46;;;;;;;11.60;3.30;;;;;;;;;;5117168;28;20549;-73
2023/02/01 08:58:16;;;;;;;15.80;3.43;;;;;;;;;;5116728;28;20550;-73
2023/02/01 09:00:45;;;;;;;46.40;10.23;;;;;;;;;;5115197;28;20457;-73
2023/02/01 09:03:21;;;;;;;14.47;3.43;;;;;;;;;;5116928;28;20541;-73
2023/02/01 09:05:49;;;;;;;12.37;2.43;;;;;;;;;;5117184;28;20447;-73
2023/02/01 09:08:19;;;;;;;13.57;3.80;;;;;;;;;;5118090;28;20450;-73
2023/02/01 09:10:49;;;;;;;11.97;3.37;;;;;;;;;;5112210;28;20928;-74
2023/02/01 09:13:17;;;;;;;10.60;3.03;;;;;;;;;;5104260;28;20525;-73
2023/02/01 09:15:45;;;;;;;7.30;1.77;;;;;;;;;;5116553;28;20470;-73
2023/02/01 09:18:12;;;;;;;13.70;2.70;;;;;;;;;;5118051;28;20443;-73
2023/02/01 09:20:40;;;;;;;6.50;1.57;;;;;;;;;;5116066;28;20486;-73
2023/02/01 09:23:09;;;;;;;9.13;1.97;;;;;;;;;;5116904;28;20478;-72
2023/02/01 09:25:38;;;;;;;8.13;2.53;;;;;;;;;;5117047;28;20446;-72
2023/02/01 09:28:09;;;;;;;20.93;3.10;;;;;;;;;;5116813;28;20462;-72
2023/02/01 09:30:40;;;;;;;15.43;2.80;;;;;;;;;;5117193;28;20578;-73
2023/02/01 09:33:11;;;;;;;12.10;3.10;;;;;;;;;;5113291;28;20743;-72
2023/02/01 09:35:39;;;;;;;14.27;2.90;;;;;;;;;;5115718;28;20459;-72
2023/02/01 09:41:10;;;;;;;9.83;3.67;;;;;;;;;;5084387;28;20831;-73
2023/02/01 09:43:43;;;;;;;5.10;1.93;;;;;;;;;;5116593;28;20515;-72
2023/02/01 09:46:22;;;;;;;14.10;3.30;;;;;;;;;;5116418;28;20789;-72
2023/02/01 09:48:52;;;;;;;6.43;2.90;;;;;;;;;;5117783;28;20981;-72
2023/02/01 09:51:23;;;;;;;11.07;2.60;;;;;;;;;;5126025;27;20861;-73
2023/02/01 09:54:01;;;;;;;8.57;2.13;;;;;;;;;;5116516;28;20531;-72
2023/02/01 09:56:35;;;;;;;9.90;2.10;;;;;;;;;;5120452;28;20431;-72
2023/02/01 09:59:12;;;;;;;16.90;2.40;;;;;;;;;;5121982;28;20449;-73
2023/02/01 10:01:40;;;;;;;20.53;3.23;;;;;;;;;;5120110;28;20546;-72
2023/02/01 10:04:10;;;;;;;9.33;2.73;;;;;;;;;;5114961;28;20458;-73
2023/02/01 10:07:04;;;;;;;7.37;1.80;;;;;;;;;;5117660;27;20879;-73
2023/02/01 10:09:57;;;;;;;11.90;2.77;;;;;;;;;;5108105;28;20941;-72
2023/02/01 10:12:40;;;;;;;6.17;2.33;;;;;;;;;;5114233;28;20710;-72
2023/02/01 10:15:22;;;;;;;11.60;2.10;;;;;;;;;;5119724;28;20473;-72
2023/02/01 10:18:01;;;;;;;18.00;3.30;;;;;;;;;;5120824;28;20446;-72
2023/02/01 10:20:32;;;;;;;11.37;2.60;;;;;;;;;;5109927;28;20939;-73
2023/02/01 10:23:10;;;;;;;7.77;2.47;;;;;;;;;;5118114;28;20455;-73
2023/02/01 10:25:45;;;;;;;11.67;2.47;;;;;;;;;;5121030;28;20461;-74
2023/02/01 10:28:23;;;;;;;7.97;2.43;;;;;;;;;;5120520;28;20461;-73
2023/02/01 10:30:59;;;;;;;14.17;3.20;;;;;;;;;;5115382;28;20505;-73
2023/02/01 10:33:28;;;;;;;15.00;3.63;;;;;;;;;;5120360;28;20468;-73
2023/02/01 10:36:07;;;;;;;22.37;5.27;;;;;;;;;;5099624;28;20891;-73
2023/02/01 10:38:35;;;;;;;10.30;2.50;;;;;;;;;;5113728;28;20872;-73
2023/02/01 10:41:04;;;;;;;15.83;4.43;;;;;;;;;;5119523;28;20470;-73
2023/02/01 10:43:33;;;;;;;11.83;3.23;;;;;;;;;;5115937;27;20468;-74
2023/02/01 10:46:04;;;;;;;15.83;3.27;;;;;;;;;;5109550;28;20520;-72
2023/02/01 10:48:33;;;;;;;11.93;2.97;;;;;;;;;;5118018;28;20734;-73
2023/02/01 10:51:02;;;;;;;9.30;3.63;;;;;;;;;;5113041;28;20474;-73
2023/02/01 10:53:33;;;;;;;7.40;2.37;;;;;;;;;;5120189;28;20478;-72
2023/02/01 10:56:16;;;;;;;8.63;1.87;;;;;;;;;;5120770;28;20459;-71
2023/02/01 10:58:58;;;;;;;8.47;2.10;;;;;;;;;;5103615;28;20510;-72
2023/02/01 11:01:32;;;;;;;21.67;3.07;;;;;;;;;;5119354;28;20450;-73
2023/02/01 11:04:08;;;;;;;11.20;2.67;;;;;;;;;;5118931;28;20461;-73
2023/02/01 11:06:38;;;;;;;18.43;4.43;;;;;;;;;;5110200;28;20532;-72
2023/02/01 11:09:34;;;;;;;10.50;3.27;;;;;;;;;;5115891;28;20814;-73
2023/02/01 11:12:11;;;;;;;6.13;1.83;;;;;;;;;;5101331;28;20940;-74
2023/02/01 11:14:52;;;;;;;18.67;2.67;;;;;;;;;;5117498;28;20451;-73
2023/02/01 11:17:32;;;;;;;10.23;1.83;;;;;;;;;;5112800;28;20529;-73
2023/02/01 11:20:01;;;;;;;9.73;2.43;;;;;;;;;;5101084;28;20471;-73
2023/02/01 11:22:29;;;;;;;13.30;2.27;;;;;;;;;;5117558;28;20644;-73
2023/02/01 11:25:24;;;;;;;4.37;1.80;;;;;;;;;;5118328;28;20458;-73
2023/02/01 11:27:52;;;;;;;13.23;3.73;;;;;;;;;;5118074;28;20445;-73
2023/02/01 11:30:38;;;;;;;16.03;3.73;;;;;;;;;;5114501;28;20486;-74
2023/02/01 11:33:10;;;;;;;7.43;1.77;;;;;;;;;;5114829;28;20542;-73
2023/02/01 11:35:40;;;;;;;12.70;3.07;;;;;;;;;;5117772;28;20465;-73
2023/02/01 11:38:17;;;;;;;9.60;2.10;;;;;;;;;;5111535;28;20859;-74
2023/02/01 11:40:49;;;;;;;11.73;2.80;;;;;;;;;;5114129;28;20466;-74
2023/02/01 11:43:30;;;;;;;12.10;1.50;;;;;;;;;;5117334;28;20463;-72
2023/02/01 11:45:59;;;;;;;17.07;2.40;;;;;;;;;;5098375;28;20466;-73
2023/02/01 11:48:32;;;;;;;8.80;1.60;;;;;;;;;;5114132;28;20558;-73
2023/02/01 11:51:13;;;;;;;13.20;4.00;;;;;;;;;;5114685;28;20506;-72
2023/02/01 11:53:45;;;;;;;14.20;3.50;;;;;;;;;;5117260;28;20462;-72
2023/02/01 11:56:31;;;;;;;11.70;1.67;;;;;;;;;;5114271;28;20762;-75
2023/02/01 11:59:10;;;;;;;9.93;2.27;;;;;;;;;;5110674;28;20518;-73
2023/02/01 12:01:57;;;;;;;8.03;1.90;;;;;;;;;;5114422;28;20446;-72
2023/02/01 12:04:43;;;;;;;13.63;2.83;;;;;;;;;;5116326;28;20769;-73
2023/02/01 12:07:16;;;;;;;6.30;1.67;;;;;;;;;;5116282;28;20490;-72
2023/02/01 12:09:50;;;;;;;12.47;4.87;;;;;;;;;;5117270;28;20787;-74
2023/02/01 12:12:26;;;;;;;6.27;1.60;;;;;;;;;;5117193;28;20557;-73
2023/02/01 12:15:09;;;;;;;5.77;2.13;;;;;;;;;;5110979;28;20469;-73
2023/02/01 12:17:55;;;;;;;9.30;2.27;;;;;;;;;;5112015;28;20450;-72
2023/02/01 12:20:29;;;;;;;8.77;1.73;;;;;;;;;;5096986;28;20450;-73
2023/02/01 12:23:02;;;;;;;4.60;1.67;;;;;;;;;;5114611;28;20541;-72
2023/02/01 12:25:42;;;;;;;10.73;1.20;;;;;;;;;;5109255;28;20455;-72
2023/02/01 12:28:22;;;;;;;10.77;1.37;;;;;;;;;;5116565;28;20549;-73
2023/02/01 12:31:05;;;;;;;4.77;1.33;;;;;;;;;;5115197;28;20498;-72
2023/02/01 12:33:48;;;;;;;4.37;2.00;;;;;;;;;;5103710;28;20455;-73
2023/02/01 12:36:23;;;;;;;6.23;0.90;;;;;;;;;;5113190;28;21063;-73
2023/02/01 12:39:11;;;;;;;3.73;0.80;;;;;;;;;;5116000;28;20908;-73
2023/02/01 12:41:45;;;;;;;4.63;1.03;;;;;;;;;;5113675;28;20450;-73
2023/02/01 12:44:29;;;;;;;3.10;0.90;;;;;;;;;;5109718;28;20550;-74
2023/02/01 12:46:59;;;;;;;8.83;1.50;;;;;;;;;;5115241;28;20473;-73
2023/02/01 12:49:40;;;;;;;2.13;0.90;;;;;;;;;;5115883;28;20546;-73
2023/02/01 12:52:14;;;;;;;1.67;0.70;;;;;;;;;;5115304;28;20762;-73
2023/02/01 12:54:47;;;;;;;7.70;0.80;;;;;;;;;;5109131;28;20470;-73
2023/02/01 12:57:22;;;;;;;1.73;0.63;;;;;;;;;;5111072;28;20455;-73
2023/02/01 12:59:59;;;;;;;2.00;0.60;;;;;;;;;;5110470;28;20485;-74
2023/02/01 13:02:44;;;;;;;1.40;0.60;;;;;;;;;;5097534;28;20946;-74
2023/02/01 13:05:19;;;;;;;1.30;0.60;;;;;;;;;;5113053;28;20516;-73
2023/02/01 13:07:55;;;;;;;3.03;0.80;;;;;;;;;;5112589;28;20597;-73
2023/02/01 13:10:31;;;;;;;1.73;0.80;;;;;;;;;;5115096;28;20492;-73
2023/02/01 13:13:08;;;;;;;1.70;0.70;;;;;;;;;;5116362;28;20459;-73
2023/02/01 13:15:46;;;;;;;1.80;0.93;;;;;;;;;;5113850;28;20627;-73
2023/02/01 13:18:20;;;;;;;2.10;0.60;;;;;;;;;;5115047;28;20450;-72
2023/02/01 13:20:50;;;;;;;1.93;0.67;;;;;;;;;;5115891;28;20482;-73
2023/02/01 13:23:26;;;;;;;1.50;0.70;;;;;;;;;;5115834;28;20942;-73
2023/02/01 13:26:16;;;;;;;1.80;0.60;;;;;;;;;;5115323;28;20491;-73
2023/02/01 13:28:49;;;;;;;1.57;0.57;;;;;;;;;;5103046;28;20445;-72
2023/02/01 13:31:33;;;;;;;1.77;0.60;;;;;;;;;;5111122;28;20482;-73
2023/02/01 13:37:29;;;;;;;1.17;0.50;;;;;;;;;;5113819;28;20462;-73
2023/02/01 13:40:14;;;;;;;1.30;0.60;;;;;;;;;;5110133;28;20459;-73
2023/02/01 13:42:55;;;;;;;1.50;0.60;;;;;;;;;;5112002;28;20451;-73
2023/02/01 13:45:37;;;;;;;1.10;0.43;;;;;;;;;;5115776;28;20441;-73
2023/02/01 13:48:06;;;;;;;1.60;0.60;;;;;;;;;;5114718;28;20821;-73
2023/02/01 13:50:43;;;;;;;1.60;0.50;;;;;;;;;;5111193;28;20576;-74
2023/02/01 13:53:28;;;;;;;1.50;0.50;;;;;;;;;;5115714;28;20550;-74
2023/02/01 13:56:06;;;;;;;2.33;0.67;;;;;;;;;;5109803;28;20477;-73
2023/02/01 13:58:36;;;;;;;2.00;0.90;;;;;;;;;;5110617;28;20462;-72
2023/02/01 14:01:25;;;;;;;1.30;0.57;;;;;;;;;;5112078;28;20813;-72
2023/02/01 14:03:55;;;;;;;1.93;0.70;;;;;;;;;;5106399;28;20541;-73
2023/02/01 14:06:39;;;;;;;2.87;0.70;;;;;;;;;;5114911;28;20455;-72
2023/02/01 14:09:17;;;;;;;2.10;0.80;;;;;;;;;;5112718;28;20533;-73
2023/02/01 14:11:47;;;;;;;3.13;1.60;;;;;;;;;;5110876;28;20494;-72
2023/02/01 14:14:35;;;;;;;2.60;1.03;;;;;;;;;;5113859;28;21104;-73
2023/02/01 14:17:26;;;;;;;1.30;0.60;;;;;;;;;;5102978;28;20558;-73
2023/02/01 14:20:18;;;;;;;1.60;0.70;;;;;;;;;;5109006;28;20541;-72
2023/02/01 14:22:47;;;;;;;1.40;0.60;;;;;;;;;;5099307;28;20447;-74
2023/02/01 14:25:18;;;;;;;2.23;0.90;;;;;;;;;;5093953;28;20467;-73
2023/02/01 14:27:49;;;;;;;4.73;0.80;;;;;;;;;;5094401;28;20452;-72
2023/02/01 14:30:18;;;;;;;3.00;1.50;;;;;;;;;;5097596;28;20483;-73
2023/02/01 14:32:47;;;;;;;2.83;0.57;;;;;;;;;;5109001;28;20449;-72
2023/02/01 14:35:26;;;;;;;1.47;0.73;;;;;;;;;;5114315;28;20462;-71
2023/02/01 14:37:55;;;;;;;3.00;1.03;;;;;;;;;;5115805;28;20854;-72
2023/02/01 14:43:11;;;;;;;3.63;1.50;;;;;;;;;;5118951;28;20474;-72
2023/02/01 14:45:53;;;;;;;6.33;2.20;;;;;;;;;;5115026;28;20463;-72
2023/02/01 14:48:43;;;;;;;3.37;1.17;;;;;;;;;;5112912;27;20537;-73
2023/02/01 14:51:13;;;;;;;2.90;1.00;;;;;;;;;;5117696;28;20549;-72
2023/02/01 14:53:43;;;;;;;4.40;1.17;;;;;;;;;;5118097;28;20465;-72
2023/02/01 14:56:21;;;;;;;7.17;0.97;;;;;;;;;;5114737;28;21270;-72
2023/02/01 14:58:53;;;;;;;3.10;1.30;;;;;;;;;;5099364;28;20459;-73
2023/02/01 15:01:25;;;;;;;5.03;1.93;;;;;;;;;;5103642;28;20450;-72
2023/02/01 15:04:06;;;;;;;3.80;0.80;;;;;;;;;;5117640;28;20443;-72
2023/02/01 15:07:06;;;;;;;2.30;0.83;;;;;;;;;;5084776;28;20455;-75
2023/02/01 15:09:40;;;;;;;4.93;1.10;;;;;;;;;;5098154;28;20460;-74
2023/02/01 15:12:24;;;;;;;5.00;0.93;;;;;;;;;;5116497;28;20482;-74
2023/02/01 15:15:07;;;;;;;4.20;1.00;;;;;;;;;;5101254;28;20481;-73
2023/02/01 15:17:44;;;;;;;1.83;0.63;;;;;;;;;;5077546;28;20479;-74
2023/02/01 15:20:38;;;;;;;4.43;1.73;;;;;;;;;;5068897;28;20539;-74
2023/02/01 15:23:09;;;;;;;3.20;1.10;;;;;;;;;;5059898;28;20461;-72
2023/02/01 15:25:42;;;;;;;5.80;0.90;;;;;;;;;;5075946;28;20460;-72
2023/02/01 15:28:16;;;;;;;1.90;0.80;;;;;;;;;;5070539;28;20454;-73
2023/02/01 15:30:58;;;;;;;5.37;2.73;;;;;;;;;;5071299;28;20518;-72
2023/02/01 15:33:29;;;;;;;3.30;1.23;;;;;;;;;;5069152;28;20469;-72
2023/02/01 15:36:12;;;;;;;7.47;1.40;;;;;;;;;;5074061;28;20453;-73
2023/02/01 15:38:47;;;;;;;4.77;1.37;;;;;;;;;;5068534;28;20453;-72
2023/02/01 15:41:20;;;;;;;6.97;1.53;;;;;;;;;;5059546;28;21028;-72
2023/02/01 15:43:51;;;;;;;3.33;0.67;;;;;;;;;;5062003;28;20464;-73
2023/02/01 15:46:35;;;;;;;4.60;1.73;;;;;;;;;;5072451;28;20449;-73
2023/02/01 15:49:06;;;;;;;12.23;3.17;;;;;;;;;;5075564;28;20540;-73
2023/02/01 15:51:42;;;;;;;5.40;1.77;;;;;;;;;;5075034;28;20519;-73